Reklama

Seznam meteostanic a jejich METAR

Vyhledat místa podle abecedy:
A B C D E F G H I J K L M N O P Q R S T U V W X Y Z

Filtrovat:

ID stanice:
a/nebo
Název místa (fulltext):
 
Místo (ID)Naposledy načteno 
Wake Island (PWAK) 31.05.2020 03:58 UTC Zobrazit METAR
PWAK 310358Z AUTO 08011KT 9999 FEW019 32/23 A3000 RMK AO2 SLP165 T03150230 $
Warsaw (EPWA) 31.05.2020 04:00 UTC Zobrazit METAR
EPWA 310400Z 35011KT 9999 FEW040 13/09 Q1009 NOSIG
Washington (KIAD) 31.05.2020 03:52 UTC Zobrazit METAR
KIAD 310352Z 33009KT 10SM FEW100 21/09 A3002 RMK AO2 SLP163 T02060094
Wellington (NZWN) 30.05.2020 22:00 UTC Zobrazit METAR
NZWN 302200Z AUTO 16007KT 9999 BKN029/// 13/10 Q1031 NOSIG
Windhoek (FYWH) 31.05.2020 04:00 UTC Zobrazit METAR
FYWH 310400Z 26004KT CAVOK 02/M07 Q1027 NOSIG
Wroclaw (EPWR) 31.05.2020 04:00 UTC Zobrazit METAR
EPWR 310400Z 33010KT 9999 -RA FEW023 SCT048 09/07 Q1017
Reklama

Lunární kalendář

  • 05.06.Fáze měsíce uplnek
  • 13.06.Fáze měsíce posl_ctvrt
  • 21.06.Fáze měsíce nov
  • 28.06.Fáze měsíce prv_ctvrt



Reklama
Meteodomečky

Počasí na Váš email

Emaily jsou bez reklamy a bez spamu



Odhlásit newsletter

Reklama


Další české internetové stránky (nejen) o počasí najdete v katalogu TOPlist - weby o počasí nebo vyhledejte na internetu, co jste tu na 🌞 Slunečnu ⛅ zatím nenašli:

Reklama